Time;durP1;ratioP1;P1;durP2;ratioP2;P2;SDS_P1;SDS_P2;PMS_P1;PMS_P2;Temp;Humidity;BMP_temperature;BMP_pressure;BME280_temperature;BME280_humidity;BME280_pressure;Samples;Min_cycle;Max_cycle;Signal;HPM_P1;HPM_P2
2021/09/23 00:01:30;;;;;;;17.70;14.07;;;;;;;;;;4871783;28;20036;-58
2021/09/23 00:03:58;;;;;;;17.15;15.23;;;;;;;;;;4872496;28;20061;-58
2021/09/23 00:06:23;;;;;;;17.83;15.07;;;;;;;;;;4867556;28;20512;-61
2021/09/23 00:08:50;;;;;;;17.80;15.35;;;;;;;;;;4877574;28;20041;-60
2021/09/23 00:11:15;;;;;;;17.80;15.90;;;;;;;;;;4874718;28;20022;-61
2021/09/23 00:13:41;;;;;;;18.38;14.40;;;;;;;;;;4873236;28;20556;-58
2021/09/23 00:16:06;;;;;;;17.75;14.80;;;;;;;;;;4868285;28;20033;-58
2021/09/23 00:18:31;;;;;;;15.55;13.55;;;;;;;;;;4874380;28;20034;-59
2021/09/23 00:20:57;;;;;;;18.77;15.05;;;;;;;;;;4879199;28;20034;-58
2021/09/23 00:23:23;;;;;;;18.40;14.88;;;;;;;;;;4876245;28;20046;-58
2021/09/23 00:25:48;;;;;;;18.13;14.52;;;;;;;;;;4875719;28;20787;-61
2021/09/23 00:28:13;;;;;;;17.95;14.27;;;;;;;;;;4877750;28;20034;-58
2021/09/23 00:30:39;;;;;;;17.40;14.68;;;;;;;;;;4875343;28;20080;-58
2021/09/23 00:33:04;;;;;;;17.63;14.35;;;;;;;;;;4877481;28;20043;-59
2021/09/23 00:35:30;;;;;;;15.65;13.52;;;;;;;;;;4875502;28;20850;-61
2021/09/23 00:37:55;;;;;;;17.83;13.77;;;;;;;;;;4876706;28;20385;-60
2021/09/23 00:40:21;;;;;;;18.83;14.13;;;;;;;;;;4874835;28;20087;-60
2021/09/23 00:42:47;;;;;;;18.45;14.10;;;;;;;;;;4881437;28;24716;-60
2021/09/23 00:45:13;;;;;;;18.83;14.13;;;;;;;;;;4875497;28;20099;-60
2021/09/23 00:47:38;;;;;;;18.30;14.30;;;;;;;;;;4876384;28;20029;-58
2021/09/23 00:50:05;;;;;;;17.65;13.57;;;;;;;;;;4874139;28;20468;-58
2021/09/23 00:52:31;;;;;;;18.05;14.48;;;;;;;;;;4875225;28;20034;-58
2021/09/23 00:54:56;;;;;;;18.05;14.38;;;;;;;;;;4874647;28;20786;-59
2021/09/23 00:57:22;;;;;;;16.70;14.13;;;;;;;;;;4870903;28;20686;-59
2021/09/23 00:59:53;;;;;;;17.80;14.60;;;;;;;;;;4866350;28;20033;-58
2021/09/23 01:02:18;;;;;;;21.55;15.23;;;;;;;;;;4876000;28;20589;-58
2021/09/23 01:04:44;;;;;;;17.40;14.53;;;;;;;;;;4875830;28;20187;-59
2021/09/23 01:07:10;;;;;;;18.20;14.02;;;;;;;;;;4875167;28;20288;-58
2021/09/23 01:09:39;;;;;;;20.42;14.30;;;;;;;;;;4873654;28;20505;-59
2021/09/23 01:12:04;;;;;;;17.48;15.02;;;;;;;;;;4872190;28;20041;-59
2021/09/23 01:14:29;;;;;;;17.27;15.10;;;;;;;;;;4872495;28;21205;-60
2021/09/23 01:16:55;;;;;;;20.80;14.70;;;;;;;;;;4872471;28;20661;-58
2021/09/23 01:19:20;;;;;;;18.77;14.77;;;;;;;;;;4870465;28;20029;-59
2021/09/23 01:21:45;;;;;;;16.27;14.53;;;;;;;;;;4874024;28;20013;-60
2021/09/23 01:24:11;;;;;;;17.27;14.88;;;;;;;;;;4874043;28;20991;-59
2021/09/23 01:26:36;;;;;;;17.58;14.45;;;;;;;;;;4866436;28;20302;-60
2021/09/23 01:29:01;;;;;;;17.58;14.90;;;;;;;;;;4874447;28;20643;-59
2021/09/23 01:31:27;;;;;;;18.13;14.70;;;;;;;;;;4870805;28;21687;-59
2021/09/23 01:33:52;;;;;;;17.95;15.02;;;;;;;;;;4869555;28;21336;-59
2021/09/23 01:36:17;;;;;;;18.30;14.43;;;;;;;;;;4869350;28;20747;-60
2021/09/23 01:38:43;;;;;;;19.13;14.27;;;;;;;;;;4873167;28;20762;-59
2021/09/23 01:41:09;;;;;;;18.98;14.68;;;;;;;;;;4877364;28;20265;-59
2021/09/23 01:43:34;;;;;;;16.80;14.23;;;;;;;;;;4875404;28;20052;-59
2021/09/23 01:46:00;;;;;;;18.00;14.23;;;;;;;;;;4874655;28;20328;-59
2021/09/23 01:48:25;;;;;;;21.38;15.23;;;;;;;;;;4874994;28;20026;-59
2021/09/23 01:50:50;;;;;;;17.90;14.00;;;;;;;;;;4875956;28;20026;-60
2021/09/23 01:53:15;;;;;;;17.50;13.88;;;;;;;;;;4873585;28;20300;-59
2021/09/23 01:55:41;;;;;;;17.87;14.17;;;;;;;;;;4867187;28;20061;-59
2021/09/23 01:58:07;;;;;;;17.93;14.10;;;;;;;;;;4873727;28;20874;-59
2021/09/23 02:00:32;;;;;;;17.30;15.05;;;;;;;;;;4870070;28;24799;-58
2021/09/23 02:02:57;;;;;;;16.80;14.10;;;;;;;;;;4873569;28;20026;-59
2021/09/23 02:05:22;;;;;;;18.17;14.10;;;;;;;;;;4871336;28;20057;-59
2021/09/23 02:07:48;;;;;;;15.93;13.97;;;;;;;;;;4872319;28;20843;-59
2021/09/23 02:10:13;;;;;;;16.40;13.75;;;;;;;;;;4870573;28;20033;-59
2021/09/23 02:12:39;;;;;;;16.58;13.35;;;;;;;;;;4874096;28;20037;-59
2021/09/23 02:15:05;;;;;;;16.50;13.63;;;;;;;;;;4875699;28;21416;-59
2021/09/23 02:17:30;;;;;;;18.77;13.52;;;;;;;;;;4875659;28;20143;-59
2021/09/23 02:19:56;;;;;;;16.77;12.77;;;;;;;;;;4877295;28;21063;-58
2021/09/23 02:22:22;;;;;;;17.63;13.77;;;;;;;;;;4867184;28;20194;-58
2021/09/23 02:24:47;;;;;;;15.85;13.02;;;;;;;;;;4872455;28;21834;-59
2021/09/23 02:27:12;;;;;;;17.58;13.63;;;;;;;;;;4874707;28;20609;-59
2021/09/23 02:29:38;;;;;;;17.95;13.25;;;;;;;;;;4877459;28;20101;-58
2021/09/23 02:32:04;;;;;;;16.75;12.90;;;;;;;;;;4872975;28;20263;-58
2021/09/23 02:34:29;;;;;;;20.48;13.60;;;;;;;;;;4877299;28;20025;-59
2021/09/23 02:36:55;;;;;;;16.45;13.00;;;;;;;;;;4883220;28;20034;-59
2021/09/23 02:39:20;;;;;;;19.08;14.02;;;;;;;;;;4881161;28;20403;-59
2021/09/23 02:41:45;;;;;;;17.60;12.77;;;;;;;;;;4889436;28;20866;-58
2021/09/23 02:44:10;;;;;;;15.63;12.73;;;;;;;;;;4871710;28;20273;-59
2021/09/23 02:46:36;;;;;;;15.77;12.65;;;;;;;;;;4877234;28;21334;-59
2021/09/23 02:49:01;;;;;;;20.70;13.52;;;;;;;;;;4875103;28;20304;-59
2021/09/23 02:51:27;;;;;;;18.85;13.70;;;;;;;;;;4873583;28;20030;-59
2021/09/23 02:53:52;;;;;;;16.48;13.57;;;;;;;;;;4873951;28;20168;-59
2021/09/23 02:56:17;;;;;;;17.10;13.47;;;;;;;;;;4874859;28;20739;-58
2021/09/23 02:58:43;;;;;;;16.60;12.70;;;;;;;;;;4873970;28;20034;-58
2021/09/23 03:01:09;;;;;;;16.38;13.02;;;;;;;;;;4867536;28;20036;-58
2021/09/23 03:03:34;;;;;;;19.13;13.30;;;;;;;;;;4873362;28;20034;-59
2021/09/23 03:05:59;;;;;;;20.37;13.53;;;;;;;;;;4878424;28;21017;-59
2021/09/23 03:08:25;;;;;;;19.88;14.07;;;;;;;;;;4873571;28;20265;-58
2021/09/23 03:10:50;;;;;;;15.35;12.48;;;;;;;;;;4873321;28;20153;-59
2021/09/23 03:13:15;;;;;;;15.88;12.70;;;;;;;;;;4874575;28;20405;-59
2021/09/23 03:15:41;;;;;;;15.60;13.13;;;;;;;;;;4872856;28;20096;-59
2021/09/23 03:18:06;;;;;;;19.60;13.95;;;;;;;;;;4877032;28;20410;-59
2021/09/23 03:20:31;;;;;;;19.67;13.82;;;;;;;;;;4873715;28;21234;-59
2021/09/23 03:22:57;;;;;;;18.85;14.13;;;;;;;;;;4876234;28;20034;-59
2021/09/23 03:25:22;;;;;;;17.05;13.23;;;;;;;;;;4876617;28;20036;-58
2021/09/23 03:27:49;;;;;;;16.52;13.07;;;;;;;;;;4880088;28;20030;-59
2021/09/23 03:30:14;;;;;;;17.08;13.07;;;;;;;;;;4879470;28;21008;-59
2021/09/23 03:32:39;;;;;;;16.45;12.93;;;;;;;;;;4879392;28;20042;-59
2021/09/23 03:35:05;;;;;;;19.87;13.00;;;;;;;;;;4874745;28;20514;-59
2021/09/23 03:37:30;;;;;;;17.08;13.23;;;;;;;;;;4872812;28;20275;-59
2021/09/23 03:39:56;;;;;;;15.60;12.77;;;;;;;;;;4871985;28;20027;-59
2021/09/23 03:42:21;;;;;;;17.67;13.02;;;;;;;;;;4873948;28;20200;-59
2021/09/23 03:44:47;;;;;;;16.00;13.35;;;;;;;;;;4867148;28;20568;-59
2021/09/23 03:47:12;;;;;;;17.63;13.55;;;;;;;;;;4873033;28;20105;-59
2021/09/23 03:49:38;;;;;;;18.30;12.38;;;;;;;;;;4873713;28;20033;-59
2021/09/23 03:52:03;;;;;;;18.80;13.00;;;;;;;;;;4887803;28;20026;-59
2021/09/23 03:54:28;;;;;;;17.00;13.35;;;;;;;;;;4873342;28;21231;-59
2021/09/23 03:56:53;;;;;;;16.73;13.03;;;;;;;;;;4876300;28;20808;-59
2021/09/23 03:59:19;;;;;;;16.95;13.43;;;;;;;;;;4872138;28;20025;-59
2021/09/23 04:01:46;;;;;;;17.03;13.77;;;;;;;;;;4874678;28;20073;-59
2021/09/23 04:04:11;;;;;;;18.60;13.88;;;;;;;;;;4876771;28;20272;-58
2021/09/23 04:06:42;;;;;;;15.80;12.82;;;;;;;;;;4868960;28;20163;-58
2021/09/23 04:09:07;;;;;;;19.35;13.77;;;;;;;;;;4872569;28;20041;-59
2021/09/23 04:11:33;;;;;;;17.23;12.98;;;;;;;;;;4869242;28;20030;-59
2021/09/23 04:13:58;;;;;;;15.60;12.55;;;;;;;;;;4878911;28;20395;-59
2021/09/23 04:16:23;;;;;;;19.77;13.00;;;;;;;;;;4874140;28;20059;-59
2021/09/23 04:18:48;;;;;;;18.17;12.57;;;;;;;;;;4875642;28;20264;-59
2021/09/23 04:21:14;;;;;;;15.85;11.65;;;;;;;;;;4873230;28;20269;-59
2021/09/23 04:23:39;;;;;;;18.52;11.98;;;;;;;;;;4870346;28;20552;-60
2021/09/23 04:26:04;;;;;;;17.20;12.53;;;;;;;;;;4877469;28;20037;-59
2021/09/23 04:28:29;;;;;;;20.07;12.07;;;;;;;;;;4877603;28;22342;-59
2021/09/23 04:30:55;;;;;;;16.23;12.00;;;;;;;;;;4878065;28;20304;-59
2021/09/23 04:33:20;;;;;;;17.45;12.32;;;;;;;;;;4875634;28;20045;-59
2021/09/23 04:35:47;;;;;;;15.98;12.13;;;;;;;;;;4873143;28;20033;-59
2021/09/23 04:38:17;;;;;;;17.98;12.77;;;;;;;;;;4877186;28;20022;-59
2021/09/23 04:40:42;;;;;;;13.95;11.60;;;;;;;;;;4874767;28;20026;-59
2021/09/23 04:43:07;;;;;;;15.33;12.30;;;;;;;;;;4875159;28;20055;-58
2021/09/23 04:45:32;;;;;;;15.70;11.40;;;;;;;;;;4869376;28;20277;-59
2021/09/23 04:47:58;;;;;;;17.33;11.60;;;;;;;;;;4878325;28;21373;-59
2021/09/23 04:50:23;;;;;;;16.48;12.90;;;;;;;;;;4877175;28;20073;-58
2021/09/23 04:52:48;;;;;;;15.90;12.05;;;;;;;;;;4880356;28;20042;-58
2021/09/23 04:55:13;;;;;;;14.50;11.77;;;;;;;;;;4874546;28;20164;-60
2021/09/23 04:57:39;;;;;;;16.20;12.27;;;;;;;;;;4868917;28;20272;-59
2021/09/23 05:00:05;;;;;;;16.30;11.63;;;;;;;;;;4876553;28;20029;-59
2021/09/23 05:02:31;;;;;;;14.10;10.90;;;;;;;;;;4881366;28;20116;-59
2021/09/23 05:04:56;;;;;;;13.88;11.20;;;;;;;;;;4877144;28;20188;-59
2021/09/23 05:07:22;;;;;;;16.02;10.70;;;;;;;;;;4889644;28;20429;-59
2021/09/23 05:09:47;;;;;;;13.93;10.53;;;;;;;;;;4880689;28;20712;-59
2021/09/23 05:12:12;;;;;;;14.50;10.93;;;;;;;;;;4874973;28;20296;-59
2021/09/23 05:14:38;;;;;;;13.30;10.65;;;;;;;;;;4876737;28;20311;-59
2021/09/23 05:17:03;;;;;;;13.77;10.33;;;;;;;;;;4877221;28;20034;-59
2021/09/23 05:19:28;;;;;;;16.63;10.35;;;;;;;;;;4877085;28;20618;-59
2021/09/23 05:21:53;;;;;;;18.27;10.70;;;;;;;;;;4883045;28;20044;-60
2021/09/23 05:24:19;;;;;;;17.98;9.80;;;;;;;;;;4888199;28;20272;-59
2021/09/23 05:26:44;;;;;;;15.40;10.35;;;;;;;;;;4884947;28;20084;-59
2021/09/23 05:29:09;;;;;;;16.33;10.32;;;;;;;;;;4902401;28;23497;-59
2021/09/23 05:31:35;;;;;;;15.20;10.97;;;;;;;;;;4886062;28;20029;-58
2021/09/23 05:34:01;;;;;;;14.70;10.38;;;;;;;;;;4877918;28;20273;-59
2021/09/23 05:36:26;;;;;;;15.68;10.88;;;;;;;;;;4879227;28;20018;-59
2021/09/23 05:38:52;;;;;;;17.13;10.65;;;;;;;;;;4886382;28;20128;-59
2021/09/23 05:41:17;;;;;;;14.73;10.65;;;;;;;;;;4884939;28;20121;-58
2021/09/23 05:43:43;;;;;;;19.25;11.10;;;;;;;;;;4878372;28;20073;-59
2021/09/23 05:46:08;;;;;;;19.63;11.48;;;;;;;;;;4885003;28;20033;-59
2021/09/23 05:48:33;;;;;;;14.65;11.15;;;;;;;;;;4889572;28;20732;-59
2021/09/23 05:50:58;;;;;;;15.73;10.63;;;;;;;;;;4887072;28;20480;-59
2021/09/23 05:53:24;;;;;;;16.60;11.03;;;;;;;;;;4881639;28;20948;-59
2021/09/23 05:55:50;;;;;;;16.60;11.27;;;;;;;;;;4879228;28;20580;-60
2021/09/23 05:58:15;;;;;;;25.58;11.85;;;;;;;;;;4880801;28;21150;-59
2021/09/23 06:00:41;;;;;;;15.38;11.93;;;;;;;;;;4886855;28;21014;-59
2021/09/23 06:03:06;;;;;;;17.17;11.15;;;;;;;;;;4883809;28;20056;-58
2021/09/23 06:05:31;;;;;;;20.92;12.20;;;;;;;;;;4887070;28;20125;-59
2021/09/23 06:07:56;;;;;;;19.00;11.80;;;;;;;;;;4886530;28;20494;-59
2021/09/23 06:10:22;;;;;;;23.63;11.80;;;;;;;;;;4878732;28;20343;-59
2021/09/23 06:12:47;;;;;;;34.95;14.15;;;;;;;;;;4889025;28;20026;-59
2021/09/23 06:15:12;;;;;;;46.03;13.97;;;;;;;;;;4882972;28;20621;-58
2021/09/23 06:17:39;;;;;;;32.95;13.18;;;;;;;;;;4885003;28;20312;-59
2021/09/23 06:20:05;;;;;;;28.17;12.57;;;;;;;;;;4883417;28;20056;-59
2021/09/23 06:22:30;;;;;;;20.80;12.00;;;;;;;;;;4886435;28;20029;-60
2021/09/23 06:24:56;;;;;;;18.38;11.52;;;;;;;;;;4873921;28;20037;-59
2021/09/23 06:27:21;;;;;;;15.00;10.80;;;;;;;;;;4883449;28;20034;-59
2021/09/23 06:29:46;;;;;;;16.77;11.35;;;;;;;;;;4888558;28;20084;-59
2021/09/23 06:32:12;;;;;;;18.10;11.47;;;;;;;;;;4888312;28;20148;-59
2021/09/23 06:34:37;;;;;;;15.07;11.18;;;;;;;;;;4886269;28;20987;-59
2021/09/23 06:37:02;;;;;;;19.63;11.47;;;;;;;;;;4887306;28;21628;-59
2021/09/23 06:39:27;;;;;;;15.43;10.57;;;;;;;;;;4884545;28;20844;-59
2021/09/23 06:41:53;;;;;;;17.63;11.43;;;;;;;;;;4880897;28;20042;-59
2021/09/23 06:44:19;;;;;;;15.25;10.48;;;;;;;;;;4887120;28;20030;-59
2021/09/23 06:46:44;;;;;;;17.80;11.07;;;;;;;;;;4882256;28;20037;-59
2021/09/23 06:49:09;;;;;;;14.95;10.30;;;;;;;;;;4884660;28;21278;-59
2021/09/23 06:51:34;;;;;;;15.67;10.40;;;;;;;;;;4889332;28;20030;-58
2021/09/23 06:54:00;;;;;;;15.43;11.35;;;;;;;;;;4887743;28;20289;-59
2021/09/23 06:56:25;;;;;;;17.02;11.68;;;;;;;;;;4888961;28;20037;-59
2021/09/23 06:58:50;;;;;;;14.83;11.10;;;;;;;;;;4885321;28;20974;-59
2021/09/23 07:01:15;;;;;;;15.73;11.13;;;;;;;;;;4891013;28;20270;-58
2021/09/23 07:03:41;;;;;;;17.08;10.82;;;;;;;;;;4882303;28;20280;-58
2021/09/23 07:06:06;;;;;;;18.42;11.15;;;;;;;;;;4887476;28;20030;-60
2021/09/23 07:08:31;;;;;;;17.58;11.20;;;;;;;;;;4888371;28;20722;-59
2021/09/23 07:10:57;;;;;;;20.03;11.27;;;;;;;;;;4889188;28;21966;-59
2021/09/23 07:13:22;;;;;;;23.30;11.38;;;;;;;;;;4884744;28;20383;-59
2021/09/23 07:15:47;;;;;;;21.77;11.85;;;;;;;;;;4885290;28;20040;-58
2021/09/23 07:18:14;;;;;;;22.45;11.05;;;;;;;;;;4887580;28;20611;-59
2021/09/23 07:20:39;;;;;;;28.52;10.70;;;;;;;;;;4877917;28;20041;-59
2021/09/23 07:23:04;;;;;;;24.70;10.88;;;;;;;;;;4880773;28;20037;-59
2021/09/23 07:25:30;;;;;;;23.85;11.40;;;;;;;;;;4887683;28;20607;-59
2021/09/23 07:27:56;;;;;;;21.98;11.20;;;;;;;;;;4883682;28;20192;-59
2021/09/23 07:30:22;;;;;;;18.48;10.13;;;;;;;;;;4879249;28;20145;-58
2021/09/23 07:32:48;;;;;;;16.50;11.60;;;;;;;;;;4873642;28;20160;-59
2021/09/23 07:35:13;;;;;;;15.70;11.15;;;;;;;;;;4873707;28;24476;-59
2021/09/23 07:37:39;;;;;;;20.05;11.95;;;;;;;;;;4883984;28;20041;-59
2021/09/23 07:40:06;;;;;;;17.40;11.52;;;;;;;;;;4871752;28;20034;-58
2021/09/23 07:42:32;;;;;;;24.30;10.52;;;;;;;;;;4867240;28;21609;-59
2021/09/23 07:44:57;;;;;;;14.15;10.18;;;;;;;;;;4870441;28;20037;-59
2021/09/23 07:47:23;;;;;;;17.37;10.20;;;;;;;;;;4864036;28;20037;-58
2021/09/23 07:49:48;;;;;;;15.87;9.87;;;;;;;;;;4870409;28;20387;-59
2021/09/23 07:52:13;;;;;;;14.33;10.17;;;;;;;;;;4870103;28;20037;-59
2021/09/23 07:54:38;;;;;;;18.13;11.83;;;;;;;;;;4878811;28;21385;-58
2021/09/23 07:57:04;;;;;;;17.00;11.23;;;;;;;;;;4878891;28;24494;-59
2021/09/23 07:59:29;;;;;;;15.70;10.27;;;;;;;;;;4885701;28;20492;-58
2021/09/23 08:01:54;;;;;;;15.03;10.37;;;;;;;;;;4872006;28;20134;-58
2021/09/23 08:04:19;;;;;;;15.63;10.98;;;;;;;;;;4875116;28;20500;-59
2021/09/23 08:06:45;;;;;;;17.00;10.67;;;;;;;;;;4881470;28;20052;-59
2021/09/23 08:09:10;;;;;;;17.23;9.90;;;;;;;;;;4874430;28;20042;-58
2021/09/23 08:11:35;;;;;;;13.98;9.93;;;;;;;;;;4892993;28;20380;-58
2021/09/23 08:14:00;;;;;;;15.87;9.63;;;;;;;;;;4878661;28;20988;-59
2021/09/23 08:16:26;;;;;;;15.47;9.63;;;;;;;;;;4881160;28;20713;-59
2021/09/23 08:18:51;;;;;;;16.20;10.27;;;;;;;;;;4879555;28;21130;-58
2021/09/23 08:21:16;;;;;;;16.30;9.27;;;;;;;;;;4881523;28;20721;-58
2021/09/23 08:23:42;;;;;;;12.70;9.25;;;;;;;;;;4885507;28;20926;-59
2021/09/23 08:26:07;;;;;;;15.17;10.47;;;;;;;;;;4875602;28;20468;-58
2021/09/23 08:28:35;;;;;;;23.13;10.07;;;;;;;;;;4877786;28;20264;-58
2021/09/23 08:31:01;;;;;;;15.73;10.40;;;;;;;;;;4880350;28;20624;-59
2021/09/23 08:33:26;;;;;;;19.45;10.50;;;;;;;;;;4898017;28;20550;-59
2021/09/23 08:35:51;;;;;;;16.30;10.57;;;;;;;;;;4881498;28;20038;-59
2021/09/23 08:38:19;;;;;;;14.48;10.15;;;;;;;;;;4878759;28;20473;-59
2021/09/23 08:40:47;;;;;;;15.80;10.18;;;;;;;;;;4876716;28;21111;-59
2021/09/23 08:43:12;;;;;;;17.50;10.43;;;;;;;;;;4878426;28;20045;-59
2021/09/23 08:45:37;;;;;;;19.17;10.45;;;;;;;;;;4874339;28;20034;-59
2021/09/23 08:48:03;;;;;;;13.93;10.45;;;;;;;;;;4876549;28;20716;-59
2021/09/23 08:50:28;;;;;;;14.05;9.82;;;;;;;;;;4876588;28;20037;-59
2021/09/23 08:52:54;;;;;;;20.23;11.10;;;;;;;;;;4877583;28;20034;-59
2021/09/23 08:55:24;;;;;;;17.40;11.10;;;;;;;;;;4881827;28;20789;-58
2021/09/23 08:57:49;;;;;;;13.75;10.70;;;;;;;;;;4879104;28;21749;-59
2021/09/23 09:00:15;;;;;;;15.70;10.65;;;;;;;;;;4890624;28;20401;-58
2021/09/23 09:02:40;;;;;;;13.80;9.57;;;;;;;;;;4863381;28;20913;-59
2021/09/23 09:05:05;;;;;;;14.53;8.70;;;;;;;;;;4869292;28;20030;-58
2021/09/23 09:07:31;;;;;;;14.32;10.10;;;;;;;;;;4867495;28;20466;-59
2021/09/23 09:10:04;;;;;;;16.25;10.88;;;;;;;;;;4868388;28;20038;-59
2021/09/23 09:12:30;;;;;;;14.10;10.82;;;;;;;;;;4869294;28;20069;-59
2021/09/23 09:14:55;;;;;;;15.43;10.07;;;;;;;;;;4870477;28;20034;-59
2021/09/23 09:17:21;;;;;;;13.43;10.40;;;;;;;;;;4864544;28;20025;-59
2021/09/23 09:19:48;;;;;;;13.07;9.07;;;;;;;;;;4865206;28;20030;-58
2021/09/23 09:22:14;;;;;;;13.30;9.25;;;;;;;;;;4872527;28;20025;-58
2021/09/23 09:24:54;;;;;;;13.35;9.40;;;;;;;;;;4870253;28;20029;-59
2021/09/23 09:27:37;;;;;;;12.95;8.25;;;;;;;;;;4870059;28;20037;-59
2021/09/23 09:30:05;;;;;;;12.40;7.70;;;;;;;;;;4872364;28;20124;-60
2021/09/23 09:32:44;;;;;;;14.60;7.00;;;;;;;;;;4869205;28;20402;-61
2021/09/23 09:35:10;;;;;;;;;;;;;;;;;;4867805;28;21475;-61
2021/09/23 09:37:35;;;;;;;10.38;8.20;;;;;;;;;;4872067;28;20461;-61
2021/09/23 09:40:01;;;;;;;13.20;8.23;;;;;;;;;;4869656;28;20579;-61
2021/09/23 09:42:27;;;;;;;16.75;8.93;;;;;;;;;;4871505;28;20433;-60
2021/09/23 09:44:53;;;;;;;11.10;8.68;;;;;;;;;;4868105;28;20022;-61
2021/09/23 09:47:25;;;;;;;15.85;8.68;;;;;;;;;;4866180;28;23447;-61
2021/09/23 09:49:51;;;;;;;11.85;7.90;;;;;;;;;;4883450;28;20034;-61
2021/09/23 09:52:26;;;;;;;11.30;7.50;;;;;;;;;;4865295;28;20751;-61
2021/09/23 09:54:58;;;;;;;12.82;7.82;;;;;;;;;;4864497;28;20026;-61
2021/09/23 09:57:25;;;;;;;9.80;7.50;;;;;;;;;;4870634;28;20030;-61
2021/09/23 09:59:50;;;;;;;12.10;7.60;;;;;;;;;;4865078;28;20033;-61
2021/09/23 10:02:15;;;;;;;13.60;7.40;;;;;;;;;;4868064;28;20080;-61
2021/09/23 10:04:41;;;;;;;12.95;8.23;;;;;;;;;;4872958;28;20273;-61
2021/09/23 10:07:08;;;;;;;11.75;7.07;;;;;;;;;;4871651;28;20738;-61
2021/09/23 10:09:36;;;;;;;10.88;7.25;;;;;;;;;;4873429;28;20061;-60
2021/09/23 10:12:02;;;;;;;11.10;6.60;;;;;;;;;;4875640;28;20057;-61
2021/09/23 10:14:28;;;;;;;9.52;6.55;;;;;;;;;;4872952;28;20050;-61
2021/09/23 10:16:54;;;;;;;10.05;6.50;;;;;;;;;;4868659;28;20132;-61
2021/09/23 10:19:20;;;;;;;10.32;6.80;;;;;;;;;;4876739;28;20026;-61
2021/09/23 10:21:45;;;;;;;8.50;6.43;;;;;;;;;;4874451;28;20150;-61
2021/09/23 10:24:11;;;;;;;8.25;6.43;;;;;;;;;;4871390;28;21487;-61
2021/09/23 10:26:40;;;;;;;9.30;7.20;;;;;;;;;;4871377;28;20378;-61
2021/09/23 10:29:05;;;;;;;10.15;6.90;;;;;;;;;;4870204;28;20499;-61
2021/09/23 10:31:33;;;;;;;9.10;6.43;;;;;;;;;;4871851;28;20022;-62
2021/09/23 10:33:59;;;;;;;12.60;6.72;;;;;;;;;;4871628;28;20099;-60
2021/09/23 10:36:25;;;;;;;9.93;6.78;;;;;;;;;;4866748;28;20052;-60
2021/09/23 10:38:50;;;;;;;10.98;7.25;;;;;;;;;;4871571;28;20704;-62
2021/09/23 10:41:16;;;;;;;10.45;6.53;;;;;;;;;;4874076;28;20184;-63
2021/09/23 10:43:42;;;;;;;11.60;7.15;;;;;;;;;;4875152;28;20516;-61
2021/09/23 10:46:09;;;;;;;10.68;6.82;;;;;;;;;;4889405;28;20030;-60
2021/09/23 10:48:36;;;;;;;11.02;6.85;;;;;;;;;;4869159;28;20030;-62
2021/09/23 10:51:03;;;;;;;10.52;6.90;;;;;;;;;;4877820;28;20049;-62
2021/09/23 10:53:30;;;;;;;9.98;7.05;;;;;;;;;;4872052;28;20055;-60
2021/09/23 10:56:01;;;;;;;11.15;7.15;;;;;;;;;;4886631;28;20587;-62
2021/09/23 10:58:26;;;;;;;11.95;6.88;;;;;;;;;;4884958;28;20053;-60
2021/09/23 11:00:52;;;;;;;10.90;7.32;;;;;;;;;;4888316;28;20127;-60
2021/09/23 11:03:17;;;;;;;9.48;7.05;;;;;;;;;;4883687;28;20734;-60
2021/09/23 11:05:43;;;;;;;11.93;6.75;;;;;;;;;;4885196;28;20331;-63
2021/09/23 11:08:12;;;;;;;9.55;7.07;;;;;;;;;;4885259;28;20034;-61
2021/09/23 11:10:39;;;;;;;9.90;6.95;;;;;;;;;;4884274;28;20033;-61
2021/09/23 11:13:06;;;;;;;12.48;7.13;;;;;;;;;;4900014;28;20573;-62
2021/09/23 11:15:31;;;;;;;10.30;7.55;;;;;;;;;;4897854;28;20355;-61
2021/09/23 11:17:58;;;;;;;8.98;6.60;;;;;;;;;;4885450;28;20048;-60
2021/09/23 11:20:27;;;;;;;12.52;7.03;;;;;;;;;;4886331;28;20018;-62
2021/09/23 11:22:54;;;;;;;12.68;7.07;;;;;;;;;;4883905;28;23659;-62
2021/09/23 11:25:26;;;;;;;8.80;6.75;;;;;;;;;;4881500;28;21702;-62
2021/09/23 11:27:53;;;;;;;10.27;7.15;;;;;;;;;;4885204;28;20542;-62
2021/09/23 11:30:20;;;;;;;11.20;6.95;;;;;;;;;;4885315;28;24618;-62
2021/09/23 11:32:50;;;;;;;10.63;7.07;;;;;;;;;;4884651;28;20124;-62
2021/09/23 11:35:17;;;;;;;9.75;6.60;;;;;;;;;;4885642;28;20093;-62
2021/09/23 11:37:42;;;;;;;10.15;6.60;;;;;;;;;;4881534;28;20030;-62
2021/09/23 11:40:08;;;;;;;10.00;7.03;;;;;;;;;;4888849;28;20049;-61
2021/09/23 11:42:35;;;;;;;11.40;8.05;;;;;;;;;;4883697;28;20029;-62
2021/09/23 11:45:20;;;;;;;9.65;6.82;;;;;;;;;;4886968;28;20030;-62
2021/09/23 11:47:55;;;;;;;11.75;7.75;;;;;;;;;;4884948;28;20437;-62
2021/09/23 11:50:21;;;;;;;11.43;8.05;;;;;;;;;;4886046;28;20037;-62
2021/09/23 11:52:50;;;;;;;11.45;8.23;;;;;;;;;;4885965;28;21035;-62
2021/09/23 11:55:16;;;;;;;12.35;9.00;;;;;;;;;;4885348;28;20049;-62
2021/09/23 11:57:41;;;;;;;11.30;8.40;;;;;;;;;;4888127;28;20061;-61
2021/09/23 12:00:06;;;;;;;14.17;8.30;;;;;;;;;;4890855;28;20033;-62
2021/09/23 12:02:32;;;;;;;10.65;7.93;;;;;;;;;;4892324;28;20288;-61
2021/09/23 12:05:00;;;;;;;12.32;8.13;;;;;;;;;;4890322;28;20026;-62
2021/09/23 12:07:31;;;;;;;10.45;7.80;;;;;;;;;;4889877;28;20064;-61
2021/09/23 12:10:05;;;;;;;11.98;7.13;;;;;;;;;;4905972;28;20308;-62
2021/09/23 12:12:30;;;;;;;9.73;7.57;;;;;;;;;;4883515;28;20055;-61
2021/09/23 12:14:56;;;;;;;13.32;7.43;;;;;;;;;;4886298;28;20650;-61
2021/09/23 12:17:21;;;;;;;11.43;7.53;;;;;;;;;;4891567;28;20599;-61
2021/09/23 12:19:56;;;;;;;11.98;7.68;;;;;;;;;;4904035;28;20026;-61
2021/09/23 12:22:32;;;;;;;12.55;7.75;;;;;;;;;;4889571;28;20029;-61
2021/09/23 12:24:57;;;;;;;16.02;7.95;;;;;;;;;;4889895;28;20285;-61
2021/09/23 12:27:22;;;;;;;11.60;7.68;;;;;;;;;;4892270;28;21112;-61
2021/09/23 12:29:51;;;;;;;9.85;7.20;;;;;;;;;;4885981;28;20030;-61
2021/09/23 12:32:17;;;;;;;10.75;7.20;;;;;;;;;;4890222;28;20069;-61
2021/09/23 12:34:49;;;;;;;9.43;6.93;;;;;;;;;;4902762;28;21498;-61
2021/09/23 12:37:15;;;;;;;13.07;7.55;;;;;;;;;;4889363;28;20075;-61
2021/09/23 12:39:45;;;;;;;9.65;8.05;;;;;;;;;;4889867;28;20839;-61
2021/09/23 12:42:10;;;;;;;14.02;7.72;;;;;;;;;;4887763;28;20026;-61
2021/09/23 12:44:37;;;;;;;11.32;6.97;;;;;;;;;;4891672;28;20500;-61
2021/09/23 12:47:04;;;;;;;9.93;6.88;;;;;;;;;;4890507;28;20882;-61
2021/09/23 12:49:30;;;;;;;11.15;8.10;;;;;;;;;;4888533;28;20614;-61
2021/09/23 12:51:55;;;;;;;12.60;7.60;;;;;;;;;;4894187;28;21068;-61
2021/09/23 12:54:24;;;;;;;11.43;7.83;;;;;;;;;;4887083;28;20048;-60
2021/09/23 12:57:01;;;;;;;9.77;6.60;;;;;;;;;;4888842;28;20253;-62
2021/09/23 12:59:29;;;;;;;10.30;7.22;;;;;;;;;;4889342;28;20030;-61
2021/09/23 13:02:06;;;;;;;9.40;6.47;;;;;;;;;;4890702;28;20030;-61
2021/09/23 13:04:31;;;;;;;9.75;6.47;;;;;;;;;;4888735;28;20447;-61
2021/09/23 13:06:57;;;;;;;10.75;6.22;;;;;;;;;;4884394;28;20259;-59
2021/09/23 13:09:22;;;;;;;8.53;6.93;;;;;;;;;;4883488;28;20516;-61
2021/09/23 13:11:47;;;;;;;9.57;8.10;;;;;;;;;;4888385;28;20901;-60
2021/09/23 13:14:19;;;;;;;11.13;7.97;;;;;;;;;;4885650;28;20052;-60
2021/09/23 13:16:45;;;;;;;10.07;7.10;;;;;;;;;;4884351;28;20037;-61
2021/09/23 13:19:10;;;;;;;10.05;6.43;;;;;;;;;;4882920;28;20021;-60
2021/09/23 13:21:37;;;;;;;10.20;6.80;;;;;;;;;;4885518;28;20521;-59
2021/09/23 13:24:02;;;;;;;9.57;6.10;;;;;;;;;;4884120;28;20714;-59
2021/09/23 13:26:27;;;;;;;10.00;6.10;;;;;;;;;;4889267;28;24297;-60
2021/09/23 13:28:52;;;;;;;11.50;6.23;;;;;;;;;;4888748;28;20648;-60
2021/09/23 13:31:18;;;;;;;9.03;5.67;;;;;;;;;;4889200;28;20261;-59
2021/09/23 13:33:44;;;;;;;12.73;6.45;;;;;;;;;;4887705;28;20038;-60
2021/09/23 13:36:10;;;;;;;12.10;7.45;;;;;;;;;;4886663;28;20152;-60
2021/09/23 13:38:35;;;;;;;10.00;6.70;;;;;;;;;;4887960;28;20801;-59
2021/09/23 13:41:01;;;;;;;8.27;6.70;;;;;;;;;;4887858;28;20257;-60
2021/09/23 13:43:27;;;;;;;9.93;7.72;;;;;;;;;;4887407;28;20144;-60
2021/09/23 13:45:52;;;;;;;10.65;6.97;;;;;;;;;;4888254;28;20036;-59
2021/09/23 13:48:18;;;;;;;9.13;6.10;;;;;;;;;;4888070;28;20961;-60
2021/09/23 13:50:44;;;;;;;9.07;6.70;;;;;;;;;;4885252;28;23525;-59
2021/09/23 13:53:09;;;;;;;9.38;6.55;;;;;;;;;;4899697;28;20669;-60
2021/09/23 13:55:35;;;;;;;9.13;6.53;;;;;;;;;;4883871;28;20231;-60
2021/09/23 13:58:00;;;;;;;9.52;6.32;;;;;;;;;;4882931;28;20140;-61
2021/09/23 14:00:26;;;;;;;9.52;7.03;;;;;;;;;;4882808;28;20033;-60
2021/09/23 14:02:51;;;;;;;10.07;6.50;;;;;;;;;;4885170;28;20382;-60
2021/09/23 14:05:16;;;;;;;9.70;6.97;;;;;;;;;;4884606;28;23615;-60
2021/09/23 14:07:42;;;;;;;9.13;6.97;;;;;;;;;;4880043;28;20732;-59
2021/09/23 14:10:08;;;;;;;10.50;7.10;;;;;;;;;;4883147;28;20288;-60
2021/09/23 14:12:34;;;;;;;9.43;7.00;;;;;;;;;;4884719;28;20030;-60
2021/09/23 14:14:59;;;;;;;10.75;7.60;;;;;;;;;;4887707;28;20257;-60
2021/09/23 14:17:24;;;;;;;10.10;6.93;;;;;;;;;;4884575;28;20475;-58